createdAt,value
2022-10-28T00:01:20.856Z,101106.20
2022-10-28T00:03:50.978Z,101102.49
2022-10-28T00:06:21.623Z,101104.22
2022-10-28T00:08:50.029Z,101101.94
2022-10-28T00:11:20.631Z,101095.92
2022-10-28T00:13:48.955Z,101097.27
2022-10-28T00:16:20.071Z,101095.90
2022-10-28T00:18:48.277Z,101092.55
2022-10-28T00:21:18.819Z,101094.04
2022-10-28T00:23:46.698Z,101090.37
2022-10-28T00:26:17.741Z,101088.22
2022-10-28T00:28:51.089Z,101090.30
2022-10-28T00:31:20.597Z,101082.75
2022-10-28T00:33:48.809Z,101079.29
2022-10-28T00:36:22.985Z,101079.01
2022-10-28T00:38:52.592Z,101073.13
2022-10-28T00:41:32.212Z,101064.79
2022-10-28T00:44:04.011Z,101061.77
2022-10-28T00:46:31.593Z,101057.48
2022-10-28T00:49:04.523Z,101057.92
2022-10-28T00:51:35.478Z,101059.77
2022-10-28T00:54:05.449Z,101054.27
2022-10-28T00:56:43.154Z,101050.23
2022-10-28T00:59:26.313Z,101047.33
2022-10-28T01:01:54.675Z,101050.31
2022-10-28T01:04:22.989Z,101053.57
2022-10-28T01:06:51.781Z,101053.39
2022-10-28T01:09:19.374Z,101050.20
2022-10-28T01:12:09.185Z,101048.64
2022-10-28T01:15:08.744Z,101049.85
2022-10-28T01:17:50.703Z,101045.52
2022-10-28T01:20:27.366Z,101039.02
2022-10-28T01:23:21.311Z,101041.09
2022-10-28T01:26:15.938Z,101041.38
2022-10-28T01:29:02.272Z,101035.01
2022-10-28T01:31:41.510Z,101038.17
2022-10-28T01:34:25.055Z,101036.54
2022-10-28T01:37:18.393Z,101034.02
2022-10-28T01:40:17.922Z,101031.86
2022-10-28T01:43:03.896Z,101035.80
2022-10-28T01:45:42.771Z,101033.39
2022-10-28T01:48:18.647Z,101025.60
2022-10-28T01:51:09.341Z,101030.16
2022-10-28T01:53:43.177Z,101027.35
2022-10-28T01:56:16.531Z,101025.25
2022-10-28T01:58:45.139Z,101028.94
2022-10-28T02:01:14.065Z,101025.89
2022-10-28T02:03:41.717Z,101019.80
2022-10-28T02:06:17.682Z,101022.23
2022-10-28T02:09:05.469Z,101022.50
2022-10-28T02:11:52.027Z,101028.51
2022-10-28T02:14:25.514Z,101032.20
2022-10-28T02:17:14.829Z,101026.80
2022-10-28T02:20:01.578Z,101026.64
2022-10-28T02:22:44.981Z,101024.04
2022-10-28T02:25:19.318Z,101018.52
2022-10-28T02:28:02.936Z,101010.16
2022-10-28T02:30:57.947Z,101006.41
2022-10-28T02:33:31.896Z,101009.79
2022-10-28T02:36:06.961Z,101010.36
2022-10-28T02:38:42.400Z,101010.51
2022-10-28T02:41:19.359Z,101007.17
2022-10-28T02:43:53.487Z,101004.30
2022-10-28T02:46:23.332Z,101004.06
2022-10-28T02:48:59.254Z,100994.51
2022-10-28T02:51:34.431Z,100995.82
2022-10-28T02:54:04.217Z,100997.83
2022-10-28T02:56:38.217Z,100997.24
2022-10-28T02:59:11.822Z,100992.88
2022-10-28T03:01:39.801Z,100991.41
2022-10-28T03:04:08.131Z,100990.30
2022-10-28T03:06:35.714Z,100988.11
2022-10-28T03:09:03.524Z,100983.26
2022-10-28T03:11:31.419Z,100986.81
2022-10-28T03:13:58.921Z,100984.66
2022-10-28T03:16:26.716Z,100985.77
2022-10-28T03:18:54.559Z,100983.19
2022-10-28T03:21:22.100Z,100978.96
2022-10-28T03:23:49.619Z,100974.97
2022-10-28T03:26:17.231Z,100975.98
2022-10-28T03:28:44.827Z,100974.83
2022-10-28T03:31:12.385Z,100976.53
2022-10-28T03:33:39.906Z,100975.80
2022-10-28T03:36:08.142Z,100971.61
2022-10-28T03:38:35.682Z,100971.77
2022-10-28T03:41:03.304Z,100969.02
2022-10-28T03:43:31.180Z,100965.77
2022-10-28T03:45:58.746Z,100969.21
2022-10-28T03:48:26.281Z,100971.11
2022-10-28T03:50:55.166Z,100967.98
2022-10-28T03:53:27.478Z,100969.80
2022-10-28T03:56:01.475Z,100970.25
2022-10-28T03:58:29.625Z,100970.05
2022-10-28T04:00:57.554Z,100966.39
2022-10-28T04:03:26.686Z,100966.17
2022-10-28T04:05:54.725Z,100962.47
2022-10-28T04:08:22.272Z,100966.17
2022-10-28T04:10:50.112Z,100958.92
2022-10-28T04:13:17.935Z,100960.88
2022-10-28T04:15:45.531Z,100956.63
2022-10-28T04:18:13.095Z,100959.02
2022-10-28T04:20:41.196Z,100952.55
2022-10-28T04:23:11.106Z,100951.81
2022-10-28T04:25:38.617Z,100950.03
2022-10-28T04:28:06.220Z,100945.27
2022-10-28T04:30:34.021Z,100943.14
2022-10-28T04:33:01.599Z,100937.05
2022-10-28T04:35:29.210Z,100928.86
2022-10-28T04:37:56.950Z,100920.80
2022-10-28T04:40:24.548Z,100919.30
2022-10-28T04:42:52.481Z,100919.34
2022-10-28T04:45:20.184Z,100914.61
2022-10-28T04:47:47.707Z,100909.16
2022-10-28T04:50:15.619Z,100910.65
2022-10-28T04:52:43.192Z,100916.92
2022-10-28T04:55:10.763Z,100915.30
2022-10-28T04:57:38.277Z,100911.69
2022-10-28T05:00:06.466Z,100910.27
2022-10-28T05:02:34.062Z,100911.14
2022-10-28T05:05:04.441Z,100900.80
2022-10-28T05:07:31.982Z,100895.20
2022-10-28T05:09:59.584Z,100892.44
2022-10-28T05:12:27.125Z,100891.13
2022-10-28T05:14:54.657Z,100892.89
2022-10-28T05:17:22.173Z,100895.55
2022-10-28T05:19:49.713Z,100891.08
2022-10-28T05:22:17.385Z,100892.88
2022-10-28T05:24:44.934Z,100892.20
2022-10-28T05:27:12.874Z,100894.08
2022-10-28T05:29:40.418Z,100889.17
2022-10-28T05:32:07.990Z,100889.01
2022-10-28T05:34:36.156Z,100889.95
2022-10-28T05:37:03.768Z,100888.23
2022-10-28T05:39:31.374Z,100887.23
2022-10-28T05:41:58.886Z,100884.30
2022-10-28T05:44:26.490Z,100882.81
2022-10-28T05:46:56.053Z,100879.80
2022-10-28T05:49:23.621Z,100879.52
2022-10-28T05:51:51.169Z,100878.56
2022-10-28T05:54:19.900Z,100882.15
2022-10-28T05:56:47.427Z,100881.33
2022-10-28T05:59:15.066Z,100875.59
2022-10-28T06:01:42.733Z,100877.02
2022-10-28T06:04:10.511Z,100879.88
2022-10-28T06:06:38.208Z,100875.59
2022-10-28T06:09:05.979Z,100869.48
2022-10-28T06:11:33.773Z,100872.61
2022-10-28T06:14:01.820Z,100869.76
2022-10-28T06:16:29.487Z,100870.94
2022-10-28T06:18:57.054Z,100874.15
2022-10-28T06:21:24.692Z,100876.16
2022-10-28T06:23:52.279Z,100879.18
2022-10-28T06:26:19.804Z,100878.39
2022-10-28T06:28:47.354Z,100879.39
2022-10-28T06:31:14.972Z,100880.06
2022-10-28T06:33:42.513Z,100878.02
2022-10-28T06:36:10.157Z,100879.21
2022-10-28T06:38:37.756Z,100880.36
2022-10-28T06:41:05.367Z,100881.70
2022-10-28T06:43:32.895Z,100876.25
2022-10-28T06:46:03.523Z,100880.80
2022-10-28T06:48:32.593Z,100880.84
2022-10-28T06:51:00.275Z,100878.33
2022-10-28T06:53:27.842Z,100876.17
2022-10-28T06:55:57.185Z,100873.86
2022-10-28T06:58:25.905Z,100872.29
2022-10-28T07:00:57.057Z,100871.74
2022-10-28T07:03:23.577Z,100868.81
2022-10-28T07:05:51.683Z,100872.15
2022-10-28T07:08:19.846Z,100872.83
2022-10-28T07:11:04.454Z,100869.55
2022-10-28T07:13:32.009Z,100869.34
2022-10-28T07:16:03.099Z,100871.48
2022-10-28T07:18:30.930Z,100865.30
2022-10-28T07:21:00.126Z,100868.46
2022-10-28T07:23:28.904Z,100865.89
2022-10-28T07:25:58.250Z,100871.13
2022-10-28T07:28:28.116Z,100871.77
2022-10-28T07:31:00.467Z,100878.57
2022-10-28T07:33:28.445Z,100881.07
2022-10-28T07:35:56.451Z,100879.83
2022-10-28T07:38:24.198Z,100880.36
2022-10-28T07:40:51.705Z,100883.66
2022-10-28T07:43:19.269Z,100887.08
2022-10-28T07:45:46.878Z,100885.08
2022-10-28T07:48:14.835Z,100878.20
2022-10-28T07:50:42.516Z,100872.20
2022-10-28T07:53:10.126Z,100873.66
2022-10-28T07:55:37.689Z,100866.46
2022-10-28T07:58:05.265Z,100871.34
2022-10-28T08:00:32.826Z,100876.58
2022-10-28T08:03:02.410Z,100868.46
2022-10-28T08:05:30.072Z,100866.80
2022-10-28T08:08:00.597Z,100863.76
2022-10-28T08:10:28.190Z,100863.02
2022-10-28T08:12:58.006Z,100865.52
2022-10-28T08:15:28.773Z,100870.73
2022-10-28T08:17:56.928Z,100874.19
2022-10-28T08:20:24.765Z,100874.33
2022-10-28T08:22:52.625Z,100874.98
2022-10-28T08:25:20.451Z,100866.95
2022-10-28T08:27:48.006Z,100866.00
2022-10-28T08:30:15.655Z,100868.52
2022-10-28T08:32:43.280Z,100871.55
2022-10-28T08:35:10.846Z,100875.23
2022-10-28T08:37:38.387Z,100882.83
2022-10-28T08:40:06.787Z,100884.00
2022-10-28T08:42:44.525Z,100879.95
2022-10-28T08:45:37.192Z,100879.36
2022-10-28T08:48:26.702Z,100870.66
2022-10-28T08:51:01.189Z,100868.03
2022-10-28T08:53:39.100Z,100860.88
2022-10-28T08:56:22.993Z,100857.58
2022-10-28T08:58:54.578Z,100852.70
2022-10-28T09:01:50.658Z,100849.20
2022-10-28T09:04:33.702Z,100851.84
2022-10-28T09:07:03.203Z,100848.45
2022-10-28T09:09:31.877Z,100844.92
2022-10-28T09:12:23.122Z,100844.96
2022-10-28T09:15:09.629Z,100840.14
2022-10-28T09:17:52.959Z,100837.04
2022-10-28T09:20:36.667Z,100838.61
2022-10-28T09:23:29.322Z,100837.17
2022-10-28T09:26:31.502Z,100838.80
2022-10-28T09:29:22.865Z,100834.94
2022-10-28T09:32:01.602Z,100827.13
2022-10-28T09:34:49.310Z,100826.24
2022-10-28T09:37:23.847Z,100820.86
2022-10-28T09:40:12.881Z,100826.25
2022-10-28T09:43:10.709Z,100818.20
2022-10-28T09:45:45.830Z,100821.59
2022-10-28T09:48:14.335Z,100820.58
2022-10-28T09:50:42.353Z,100822.27
2022-10-28T09:53:20.479Z,100821.13
2022-10-28T09:55:50.375Z,100818.50
2022-10-28T09:58:18.905Z,100813.30
2022-10-28T10:00:46.557Z,100813.20
2022-10-28T10:03:15.995Z,100810.22
2022-10-28T10:05:50.499Z,100808.11
2022-10-28T10:08:20.825Z,100810.58
2022-10-28T10:11:00.887Z,100806.45
2022-10-28T10:13:34.890Z,100804.79
2022-10-28T10:16:15.836Z,100808.17
2022-10-28T10:18:50.259Z,100803.14
2022-10-28T10:21:21.618Z,100797.33
2022-10-28T10:23:49.263Z,100795.04
2022-10-28T10:26:17.200Z,100797.30
2022-10-28T10:28:48.352Z,100796.04
2022-10-28T10:31:22.988Z,100793.90
2022-10-28T10:33:52.820Z,100793.38
2022-10-28T10:36:23.623Z,100790.99
2022-10-28T10:39:02.570Z,100787.95
2022-10-28T10:41:46.043Z,100785.77
2022-10-28T10:44:31.646Z,100783.70
2022-10-28T10:47:06.459Z,100776.08
2022-10-28T10:49:35.994Z,100775.30
2022-10-28T10:52:10.249Z,100772.69
2022-10-28T10:54:38.138Z,100771.84
2022-10-28T10:57:10.783Z,100775.02
2022-10-28T10:59:38.540Z,100766.30
2022-10-28T11:02:28.333Z,100759.23
2022-10-28T11:05:03.404Z,100754.81
2022-10-28T11:07:32.739Z,100748.02
2022-10-28T11:10:01.861Z,100746.83
2022-10-28T11:12:35.455Z,100740.54
2022-10-28T11:15:32.475Z,100736.88
2022-10-28T11:18:04.934Z,100734.19
2022-10-28T11:20:59.685Z,100727.37
2022-10-28T11:23:50.357Z,100728.52
2022-10-28T11:26:19.961Z,100723.80
2022-10-28T11:29:10.211Z,100722.16
2022-10-28T11:32:23.899Z,100712.64
2022-10-28T11:35:10.215Z,100723.08
2022-10-28T11:37:45.540Z,100716.03
2022-10-28T11:40:49.370Z,100715.59
2022-10-28T11:43:32.828Z,100716.02
2022-10-28T11:46:23.391Z,100712.20
2022-10-28T11:49:07.049Z,100714.11
2022-10-28T11:51:47.350Z,100717.34
2022-10-28T11:54:44.962Z,100719.75
2022-10-28T11:57:17.190Z,100731.61
2022-10-28T12:00:06.990Z,100741.61
2022-10-28T12:02:47.079Z,100759.92
2022-10-28T12:05:23.541Z,100770.77
2022-10-28T12:08:01.285Z,100774.75
2022-10-28T12:10:38.482Z,100771.88
2022-10-28T12:13:28.260Z,100762.85
2022-10-28T12:16:06.022Z,100770.96
2022-10-28T12:18:49.523Z,100766.28
2022-10-28T12:21:31.246Z,100768.36
2022-10-28T12:23:59.928Z,100755.73
2022-10-28T12:26:38.411Z,100757.38
2022-10-28T12:29:16.466Z,100755.35
2022-10-28T12:31:49.110Z,100758.02
2022-10-28T12:34:25.024Z,100752.59
2022-10-28T12:37:01.568Z,100742.80
2022-10-28T12:39:37.367Z,100737.86
2022-10-28T12:42:17.995Z,100720.46
2022-10-28T12:44:48.742Z,100711.63
2022-10-28T12:47:28.676Z,100706.75
2022-10-28T12:50:05.329Z,100706.70
2022-10-28T12:52:44.066Z,100706.62
2022-10-28T12:57:51.068Z,100694.20
2022-10-28T13:00:29.736Z,100699.12
2022-10-28T13:03:14.366Z,100700.02
2022-10-28T13:06:00.886Z,100706.00
2022-10-28T13:08:51.146Z,100695.95
2022-10-28T13:11:35.180Z,100689.70
2022-10-28T13:14:29.022Z,100684.52
2022-10-28T13:17:14.248Z,100679.99
2022-10-28T13:19:52.299Z,100676.41
2022-10-28T13:22:41.860Z,100672.14
2022-10-28T13:25:24.406Z,100666.61
2022-10-28T13:28:00.235Z,100664.33
2022-10-28T13:30:30.625Z,100663.64
2022-10-28T13:33:08.610Z,100671.09
2022-10-28T13:35:37.023Z,100667.75
2022-10-28T13:38:10.736Z,100664.71
2022-10-28T13:40:38.247Z,100659.94
2022-10-28T13:43:18.914Z,100661.20
2022-10-28T13:45:54.273Z,100653.70
2022-10-28T13:48:53.896Z,100653.48
2022-10-28T13:51:21.389Z,100647.88
2022-10-28T13:53:57.234Z,100648.90
2022-10-28T13:56:27.454Z,100644.91
2022-10-28T13:59:03.090Z,100640.98
2022-10-28T14:01:41.778Z,100633.64
2022-10-28T14:04:37.296Z,100623.48
2022-10-28T14:07:20.146Z,100627.34
2022-10-28T14:09:51.573Z,100635.23
2022-10-28T14:12:28.653Z,100638.18
2022-10-28T14:15:08.112Z,100636.48
2022-10-28T14:17:39.295Z,100630.78
2022-10-28T14:20:22.413Z,100627.40
2022-10-28T14:22:51.204Z,100611.85
2022-10-28T14:25:40.828Z,100602.47
2022-10-28T14:28:27.290Z,100587.50
2022-10-28T14:31:11.420Z,100576.58
2022-10-28T14:33:42.194Z,100579.77
2022-10-28T14:36:31.894Z,100593.15
2022-10-28T14:39:19.359Z,100596.39
2022-10-28T14:42:02.989Z,100589.80
2022-10-28T14:44:49.629Z,100588.20
2022-10-28T14:47:49.152Z,100579.17
2022-10-28T14:50:21.315Z,100580.51
2022-10-28T14:52:52.150Z,100593.15
2022-10-28T14:55:25.209Z,100599.11
2022-10-28T14:57:53.380Z,100601.12
2022-10-28T15:00:25.855Z,100606.96
2022-10-28T15:02:54.922Z,100609.48
2022-10-28T15:05:25.876Z,100602.25
2022-10-28T15:07:53.978Z,100593.88
2022-10-28T15:10:28.446Z,100586.42
2022-10-28T15:12:58.218Z,100585.99
2022-10-28T15:15:29.307Z,100591.69
2022-10-28T15:17:58.300Z,100601.09
2022-10-28T15:20:30.306Z,100608.27
2022-10-28T15:23:18.803Z,100606.95
2022-10-28T15:26:04.951Z,100608.27
2022-10-28T15:28:33.126Z,100606.61
2022-10-28T15:31:00.680Z,100615.00
2022-10-28T15:33:44.252Z,100617.59
2022-10-28T15:36:19.004Z,100623.84
2022-10-28T15:38:50.395Z,100631.09
2022-10-28T15:41:41.710Z,100630.91
2022-10-28T15:44:30.747Z,100634.24
2022-10-28T15:47:00.148Z,100634.73
2022-10-28T15:49:32.754Z,100629.56
2022-10-28T15:52:16.279Z,100624.11
2022-10-28T15:54:55.416Z,100632.30
2022-10-28T15:57:26.573Z,100632.20
2022-10-28T16:00:26.174Z,100632.45
2022-10-28T16:03:05.550Z,100634.84
2022-10-28T16:05:33.283Z,100634.93
2022-10-28T16:08:03.750Z,100628.67
2022-10-28T16:10:35.855Z,100627.16
2022-10-28T16:13:09.010Z,100626.41
2022-10-28T16:15:49.875Z,100624.55
2022-10-28T16:18:17.459Z,100616.78
2022-10-28T16:20:45.673Z,100616.29
2022-10-28T16:23:18.985Z,100607.80
2022-10-28T16:25:46.547Z,100606.38
2022-10-28T16:28:24.729Z,100604.10
2022-10-28T16:30:54.647Z,100603.84
2022-10-28T16:33:32.372Z,100600.90
2022-10-28T16:36:02.346Z,100601.44
2022-10-28T16:38:31.048Z,100597.19
2022-10-28T16:41:00.132Z,100585.56
2022-10-28T16:43:30.353Z,100587.06
2022-10-28T16:46:00.385Z,100583.02
2022-10-28T16:48:29.897Z,100575.46
2022-10-28T16:51:00.644Z,100572.77
2022-10-28T16:53:28.633Z,100563.16
2022-10-28T16:55:58.936Z,100554.70
2022-10-28T16:58:28.280Z,100565.55
2022-10-28T17:00:56.779Z,100569.20
2022-10-28T17:03:24.307Z,100571.04
2022-10-28T17:05:52.001Z,100569.55
2022-10-28T17:08:36.196Z,100566.42
2022-10-28T17:11:07.043Z,100569.48
2022-10-28T17:13:34.710Z,100578.27
2022-10-28T17:16:02.215Z,100574.69
2022-10-28T17:18:29.760Z,100573.77
2022-10-28T17:21:01.659Z,100576.70
2022-10-28T17:23:29.823Z,100572.01
2022-10-28T17:26:02.072Z,100575.71
2022-10-28T17:28:29.796Z,100573.26
2022-10-28T17:31:05.361Z,100567.83
2022-10-28T17:33:33.204Z,100571.62
2022-10-28T17:36:05.799Z,100566.52
2022-10-28T17:38:33.465Z,100564.13
2022-10-28T17:41:01.318Z,100566.45
2022-10-28T17:43:28.923Z,100566.45
2022-10-28T17:46:07.015Z,100559.71
2022-10-28T17:48:35.109Z,100554.65
2022-10-28T17:51:02.993Z,100556.05
2022-10-28T17:53:30.582Z,100561.73
2022-10-28T17:56:03.774Z,100555.00
2022-10-28T17:58:32.300Z,100561.66
2022-10-28T18:01:08.073Z,100557.10
2022-10-28T18:03:38.959Z,100556.55
2022-10-28T18:06:10.680Z,100551.84
2022-10-28T18:08:43.137Z,100557.71
2022-10-28T18:11:13.124Z,100556.41
2022-10-28T18:13:44.924Z,100558.65
2022-10-28T18:16:15.530Z,100559.38
2022-10-28T18:18:43.612Z,100553.84
2022-10-28T18:21:12.118Z,100557.37
2022-10-28T18:23:40.923Z,100550.40
2022-10-28T18:26:14.304Z,100549.11
2022-10-28T18:28:43.363Z,100542.36
2022-10-28T18:31:14.066Z,100540.05
2022-10-28T18:33:42.790Z,100534.64
2022-10-28T18:36:15.786Z,100529.44
2022-10-28T18:38:43.920Z,100527.44
2022-10-28T18:41:13.297Z,100521.98
2022-10-28T18:43:41.391Z,100515.25
2022-10-28T18:46:09.331Z,100513.20
2022-10-28T18:48:37.150Z,100515.56
2022-10-28T18:51:10.744Z,100511.94
2022-10-28T18:53:40.371Z,100511.88
2022-10-28T18:56:11.996Z,100509.85
2022-10-28T18:58:39.772Z,100507.33
2022-10-28T19:01:16.428Z,100506.95
2022-10-28T19:03:44.558Z,100501.17
2022-10-28T19:06:14.992Z,100501.55
2022-10-28T19:08:43.232Z,100501.30
2022-10-28T19:11:13.351Z,100499.98
2022-10-28T19:13:42.010Z,100492.14
2022-10-28T19:16:10.279Z,100495.89
2022-10-28T19:18:38.091Z,100496.68
2022-10-28T19:21:10.805Z,100494.41
2022-10-28T19:23:38.901Z,100494.15
2022-10-28T19:26:07.166Z,100494.92
2022-10-28T19:28:39.813Z,100496.59
2022-10-28T19:31:10.250Z,100491.19
2022-10-28T19:33:39.102Z,100489.84
2022-10-28T19:36:14.377Z,100492.02
2022-10-28T19:38:41.931Z,100492.74
2022-10-28T19:41:12.613Z,100495.18
2022-10-28T19:43:41.222Z,100491.94
2022-10-28T19:46:11.704Z,100493.67
2022-10-28T19:48:44.849Z,100491.19
2022-10-28T19:51:15.919Z,100488.76
2022-10-28T19:53:52.366Z,100484.19
2022-10-28T19:56:20.796Z,100479.79
2022-10-28T19:58:53.146Z,100474.63
2022-10-28T20:01:22.680Z,100473.71
2022-10-28T20:03:51.541Z,100481.17
2022-10-28T20:06:21.229Z,100477.21
2022-10-28T20:08:49.484Z,100471.92
2022-10-28T20:11:25.815Z,100468.89
2022-10-28T20:13:56.527Z,100469.59
2022-10-28T20:16:24.987Z,100469.27
2022-10-28T20:18:56.681Z,100469.73
2022-10-28T20:21:26.673Z,100467.35
2022-10-28T20:23:56.455Z,100462.42
2022-10-28T20:26:26.998Z,100463.42
2022-10-28T20:28:54.999Z,100460.02
2022-10-28T20:31:25.536Z,100451.38
2022-10-28T20:33:59.624Z,100452.83
2022-10-28T20:36:33.719Z,100451.85
2022-10-28T20:39:12.566Z,100451.02
2022-10-28T20:41:42.082Z,100448.46
2022-10-28T20:44:09.942Z,100448.27
2022-10-28T20:46:38.149Z,100450.67
2022-10-28T20:49:08.468Z,100447.73
2022-10-28T20:51:36.599Z,100442.38
2022-10-28T20:54:04.345Z,100437.23
2022-10-28T20:56:35.067Z,100436.84
2022-10-28T20:59:02.678Z,100436.63
2022-10-28T21:01:41.011Z,100431.35
2022-10-28T21:04:10.664Z,100433.41
2022-10-28T21:06:39.618Z,100432.10
2022-10-28T21:09:07.733Z,100425.46
2022-10-28T21:11:35.487Z,100424.98
2022-10-28T21:14:03.430Z,100425.69
2022-10-28T21:16:31.633Z,100423.02
2022-10-28T21:18:59.644Z,100419.72
2022-10-28T21:21:29.169Z,100422.36
2022-10-28T21:23:59.411Z,100423.38
2022-10-28T21:26:27.356Z,100419.59
2022-10-28T21:28:56.266Z,100421.79
2022-10-28T21:31:24.039Z,100420.13
2022-10-28T21:33:52.044Z,100418.57
2022-10-28T21:36:21.052Z,100415.14
2022-10-28T21:38:53.456Z,100411.59
2022-10-28T21:41:22.018Z,100410.95
2022-10-28T21:43:51.416Z,100411.67
2022-10-28T21:46:20.442Z,100413.28
2022-10-28T21:48:48.783Z,100412.17
2022-10-28T21:51:17.414Z,100415.33
2022-10-28T21:53:45.253Z,100411.27
2022-10-28T21:56:19.285Z,100408.90
2022-10-28T21:58:49.117Z,100407.55
2022-10-28T22:01:20.007Z,100408.83
2022-10-28T22:03:47.733Z,100409.02
2022-10-28T22:06:15.411Z,100410.65
2022-10-28T22:08:43.032Z,100408.21
2022-10-28T22:11:19.491Z,100410.64
2022-10-28T22:13:48.939Z,100408.52
2022-10-28T22:16:18.581Z,100406.56
2022-10-28T22:18:46.188Z,100406.29
2022-10-28T22:21:16.679Z,100405.11
2022-10-28T22:23:44.591Z,100407.84
2022-10-28T22:26:20.938Z,100410.34
2022-10-28T22:28:49.369Z,100410.75
2022-10-28T22:31:20.179Z,100405.16
2022-10-28T22:33:48.083Z,100403.23
2022-10-28T22:36:18.249Z,100401.87
2022-10-28T22:38:46.554Z,100401.76
2022-10-28T22:41:15.616Z,100400.88
2022-10-28T22:43:45.161Z,100400.14
2022-10-28T22:46:14.811Z,100398.30
2022-10-28T22:48:43.180Z,100401.73
2022-10-28T22:51:11.106Z,100399.33
2022-10-28T22:53:39.954Z,100399.27
2022-10-28T22:56:10.766Z,100396.80
2022-10-28T22:58:38.295Z,100395.86
2022-10-28T23:01:14.502Z,100392.14
2022-10-28T23:03:44.486Z,100391.02
2022-10-28T23:06:14.152Z,100390.73
2022-10-28T23:08:43.039Z,100389.95
2022-10-28T23:11:11.382Z,100392.57
2022-10-28T23:13:39.613Z,100395.73
2022-10-28T23:16:13.129Z,100393.66
2022-10-28T23:18:41.831Z,100389.42
2022-10-28T23:21:12.969Z,100387.11
2022-10-28T23:23:41.543Z,100388.20
2022-10-28T23:26:10.606Z,100387.84
2022-10-28T23:28:38.693Z,100392.36
2022-10-28T23:31:07.500Z,100391.45
2022-10-28T23:33:35.124Z,100383.94
2022-10-28T23:36:03.776Z,100384.33
2022-10-28T23:38:32.524Z,100376.33
2022-10-28T23:41:02.583Z,100376.28
2022-10-28T23:43:31.408Z,100372.16
2022-10-28T23:45:59.689Z,100369.33
2022-10-28T23:48:28.513Z,100364.56
2022-10-28T23:50:56.875Z,100364.77
2022-10-28T23:53:24.769Z,100361.38
2022-10-28T23:55:52.469Z,100362.21
2022-10-28T23:58:21.683Z,100364.35
